Fernando Pessoa — CSKQ — position and weather

sailwx.info

Track history (hours):
 
Tides and Currents Weather Stations Pressure Air Temp Water Temp Dewpoint Dewpoint Depression Visibility Wind Speed Wind Dir Waves Ship Positions

Fernando Pessoa

Last reported at 2014-Sep-01 11:33 UTC. Time now 2014-Sep-01 11:44 UTC.
Position N 38°41' W 009°08'.

Length 49 m.

MMSI: 263701470.

Date/timePositionNaut miles runAvg speedWind from/ knotsBaromVisibWave heightAir tempDewpointWater temp
2014-Sep-01 11:33N 38°41' W 009°08'0 0.1
2014-Sep-01 10:33N 38°41' W 009°08'3 2.8
2014-Sep-01 09:33N 38°39' W 009°05'4 4.1
2014-Sep-01 08:33N 38°42' W 009°08'0 0.0
2014-Sep-01 07:34N 38°42' W 009°08'3 2.6
2014-Sep-01 06:33N 38°40' W 009°07'2 1.8
2014-Sep-01 05:33N 38°39' W 009°05'  
2014-Aug-29 19:05N 38°39' W 009°05'4 7.6
2014-Aug-29 18:34N 38°42' W 009°08'0 0.1
2014-Aug-29 17:34N 38°42' W 009°08'3 2.6
2014-Aug-29 16:33N 38°40' W 009°07'2 1.5
2014-Aug-29 15:34N 38°39' W 009°05'0 0.4
2014-Aug-29 14:33N 38°39' W 009°06'1 0.7
2014-Aug-29 13:33N 38°39' W 009°05'0 0.0
2014-Aug-29 12:33N 38°39' W 009°05'0 0.0
2014-Aug-29 11:33N 38°39' W 009°05'0 0.0
2014-Aug-29 10:33N 38°39' W 009°05'0 0.0
2014-Aug-29 09:33N 38°39' W 009°05'2 1.6
2014-Aug-29 08:33N 38°40' W 009°07'0 0.0
2014-Aug-29 07:34N 38°40' W 009°07'2 1.7
2014-Aug-29 06:33N 38°39' W 009°05'0 0.0
2014-Aug-29 05:33N 38°39' W 009°05'0 0.0
2014-Aug-29 04:33N 38°39' W 009°05'0 0.0
2014-Aug-29 03:34N 38°39' W 009°05'0 0.0
2014-Aug-29 02:34N 38°39' W 009°05'0 0.0
2014-Aug-29 01:34N 38°39' W 009°05'0 0.0
2014-Aug-29 00:33N 38°39' W 009°05'0 0.0
2014-Aug-28 23:34N 38°39' W 009°05'4 4.1
2014-Aug-28 22:34N 38°42' W 009°08'2 1.6
2014-Aug-28 21:34N 38°41' W 009°08'0 0.1
2014-Aug-28 20:33N 38°41' W 009°08'3 2.9
2014-Aug-28 19:33N 38°39' W 009°05'1 0.5
2014-Aug-28 18:33N 38°39' W 009°05'0 0.5
2014-Aug-28 17:33N 38°39' W 009°05'1 0.7
2014-Aug-28 16:33N 38°39' W 009°06'1 0.6
2014-Aug-28 15:33N 38°39' W 009°05'0 0.1
2014-Aug-28 14:34N 38°39' W 009°05'0 0.0
2014-Aug-28 10:11N 38°39' W 009°05'3 4.3
2014-Aug-28 09:34N 38°41' W 009°08'3 2.8
2014-Aug-28 08:33N 38°39' W 009°05'2 1.5
2014-Aug-28 07:33N 38°40' W 009°07'3 2.8
2014-Aug-28 06:33N 38°42' W 009°08'0 0.1
2014-Aug-28 05:34N 38°42' W 009°08'0 0.0
2014-Aug-28 04:34N 38°42' W 009°08'4 4.2
2014-Aug-28 03:33N 38°39' W 009°05'0 0.0
2014-Aug-28 02:33N 38°39' W 009°05'0 0.0
2014-Aug-28 01:33N 38°39' W 009°05'0 0.5
2014-Aug-28 00:33N 38°39' W 009°05'0 0.1
2014-Aug-27 23:34N 38°39' W 009°05'0 0.0
2014-Aug-27 22:34N 38°39' W 009°05'1 1.2
2014-Aug-27 21:34N 38°40' W 009°07'0 0.1
2014-Aug-27 20:33N 38°40' W 009°07'2 1.7
2014-Aug-27 19:33N 38°39' W 009°05'0 0.0
2014-Aug-27 18:34N 38°39' W 009°05'1 1.2
2014-Aug-27 17:33N 38°40' W 009°06'3 2.9
2014-Aug-27 16:34N 38°42' W 009°08'4 3.9
2014-Aug-27 15:33N 38°39' W 009°05'0 0.0
2014-Aug-27 08:30N 38°39' W 009°05'0 0.4
2014-Aug-27 07:34N 38°39' W 009°05'0 0.4
2014-Aug-27 06:33N 38°39' W 009°05'0 0.0
2014-Aug-27 05:33N 38°39' W 009°05'0 0.0
2014-Aug-26 20:19N 38°39' W 009°05'3 4.5
2014-Aug-26 19:33N 38°41' W 009°08'3 2.8
2014-Aug-26 18:34N 38°39' W 009°06'3 3.4
2014-Aug-26 17:34N 38°42' W 009°08'0 0.2
2014-Aug-26 16:33N 38°42' W 009°08'1 1.1
2014-Aug-26 15:33N 38°41' W 009°08'3 3.2
2014-Aug-26 14:34N 38°39' W 009°05'2 2.1
2014-Aug-26 13:34N 38°40' W 009°07'1 0.5
2014-Aug-26 12:33N 38°40' W 009°06'2 1.6
2014-Aug-26 11:34N 38°39' W 009°05'0 0.0
2014-Aug-26 10:34N 38°39' W 009°05'1 1.3
2014-Aug-26 09:34N 38°40' W 009°06'0 0.1
2014-Aug-26 08:34N 38°40' W 009°06'3 3.2
2014-Aug-26 07:34N 38°42' W 009°08'0 0.2
2014-Aug-26 06:34N 38°42' W 009°08'4 0.4
2014-Aug-25 20:22N 38°39' W 009°05'3 3.9
2014-Aug-25 19:33N 38°41' W 009°08'3 2.5
2014-Aug-25 18:34N 38°39' W 009°06'3 3.3
2014-Aug-25 17:34N 38°42' W 009°08'0 0.2
2014-Aug-25 16:34N 38°42' W 009°08'0 0.5
2014-Aug-25 15:33N 38°42' W 009°08'4 3.7
2014-Aug-25 14:33N 38°39' W 009°05'2 1.7
2014-Aug-25 13:33N 38°40' W 009°07'0 0.5
2014-Aug-25 12:34N 38°40' W 009°06'1 1.1
2014-Aug-25 11:34N 38°39' W 009°05'0 0.0
2014-Aug-25 10:34N 38°39' W 009°05'3 2.8
2014-Aug-25 09:33N 38°41' W 009°08'3 2.9
2014-Aug-25 08:33N 38°39' W 009°05'1 1.1
2014-Aug-25 07:33N 38°40' W 009°06'3 2.7
2014-Aug-25 06:33N 38°42' W 009°08'1 0.5
2014-Aug-25 05:33N 38°42' W 009°08'0 0.1
2014-Aug-25 04:34N 38°42' W 009°08'4 1.3
2014-Aug-25 01:24N 38°39' W 009°05'0 0.5
2014-Aug-25 00:34N 38°39' W 009°05'0 0.1
2014-Aug-24 23:34N 38°39' W 009°05'0 0.1
2014-Aug-24 22:34N 38°39' W 009°05'1 0.7
2014-Aug-24 21:33N 38°40' W 009°06'0 0.2
2014-Aug-24 20:34N 38°40' W 009°06'0 0.2
2014-Aug-24 19:34N 38°40' W 009°07'1 1.0
2014-Aug-24 18:34N 38°40' W 009°08'0 0.3
2014-Aug-24 17:33N 38°41' W 009°08'0 0.2
2014-Aug-24 16:33N 38°41' W 009°08'0 0.2
2014-Aug-24 15:33N 38°41' W 009°08'0 0.1
2014-Aug-24 14:33N 38°41' W 009°08'3 2.8
2014-Aug-24 13:33N 38°39' W 009°05'0 0.0
2014-Aug-24 12:33N 38°39' W 009°05'1 1.5
2014-Aug-24 11:34N 38°40' W 009°06'0 0.1
2014-Aug-24 10:34N 38°40' W 009°07'2 1.5
2014-Aug-24 09:33N 38°39' W 009°05'0 0.0
2014-Aug-22 20:06N 38°39' W 009°05'4 6.6
2014-Aug-22 19:34N 38°42' W 009°08'1 0.7
2014-Aug-22 18:34N 38°42' W 009°08'4 4.1
2014-Aug-22 17:33N 38°39' W 009°05'0 0.0
2014-Aug-22 16:33N 38°39' W 009°05'4 3.6
2014-Aug-22 15:34N 38°42' W 009°08'1 1.1
2014-Aug-22 14:34N 38°41' W 009°08'0 0.1
2014-Aug-22 13:33N 38°41' W 009°08'0 0.1
2014-Aug-22 12:34N 38°41' W 009°08'0 0.2
2014-Aug-22 11:34N 38°41' W 009°08'  
Track history (hours):
 
Tides and Currents Weather Stations Pressure Air Temp Water Temp Dewpoint Dewpoint Depression Visibility Wind Speed Wind Dir Waves Ship Positions

Fernando Pessoa

Last reported at 2014-Sep-01 11:33 UTC. Time now 2014-Sep-01 11:44 UTC.
Position N 38°41' W 009°08'.

Length 49 m.

MMSI: 263701470.

Date/timePositionNaut miles runAvg speedWind from/ knotsBaromVisibWave heightAir tempDewpointWater temp
2014-Sep-01 11:33N 38°41' W 009°08'0 0.1
2014-Sep-01 10:33N 38°41' W 009°08'3 2.8
2014-Sep-01 09:33N 38°39' W 009°05'4 4.1
2014-Sep-01 08:33N 38°42' W 009°08'0 0.0
2014-Sep-01 07:34N 38°42' W 009°08'3 2.6
2014-Sep-01 06:33N 38°40' W 009°07'2 1.8
2014-Sep-01 05:33N 38°39' W 009°05'  
2014-Aug-29 19:05N 38°39' W 009°05'4 7.6
2014-Aug-29 18:34N 38°42' W 009°08'0 0.1
2014-Aug-29 17:34N 38°42' W 009°08'3 2.6
2014-Aug-29 16:33N 38°40' W 009°07'2 1.5
2014-Aug-29 15:34N 38°39' W 009°05'0 0.4
2014-Aug-29 14:33N 38°39' W 009°06'1 0.7
2014-Aug-29 13:33N 38°39' W 009°05'0 0.0
2014-Aug-29 12:33N 38°39' W 009°05'0 0.0
2014-Aug-29 11:33N 38°39' W 009°05'0 0.0
2014-Aug-29 10:33N 38°39' W 009°05'0 0.0
2014-Aug-29 09:33N 38°39' W 009°05'2 1.6
2014-Aug-29 08:33N 38°40' W 009°07'0 0.0
2014-Aug-29 07:34N 38°40' W 009°07'2 1.7
2014-Aug-29 06:33N 38°39' W 009°05'0 0.0
2014-Aug-29 05:33N 38°39' W 009°05'0 0.0
2014-Aug-29 04:33N 38°39' W 009°05'0 0.0
2014-Aug-29 03:34N 38°39' W 009°05'0 0.0
2014-Aug-29 02:34N 38°39' W 009°05'0 0.0
2014-Aug-29 01:34N 38°39' W 009°05'0 0.0
2014-Aug-29 00:33N 38°39' W 009°05'0 0.0
2014-Aug-28 23:34N 38°39' W 009°05'4 4.1
2014-Aug-28 22:34N 38°42' W 009°08'2 1.6
2014-Aug-28 21:34N 38°41' W 009°08'0 0.1
2014-Aug-28 20:33N 38°41' W 009°08'3 2.9
2014-Aug-28 19:33N 38°39' W 009°05'1 0.5
2014-Aug-28 18:33N 38°39' W 009°05'0 0.5
2014-Aug-28 17:33N 38°39' W 009°05'1 0.7
2014-Aug-28 16:33N 38°39' W 009°06'1 0.6
2014-Aug-28 15:33N 38°39' W 009°05'0 0.1
2014-Aug-28 14:34N 38°39' W 009°05'0 0.0
2014-Aug-28 10:11N 38°39' W 009°05'3 4.3
2014-Aug-28 09:34N 38°41' W 009°08'3 2.8
2014-Aug-28 08:33N 38°39' W 009°05'2 1.5
2014-Aug-28 07:33N 38°40' W 009°07'3 2.8
2014-Aug-28 06:33N 38°42' W 009°08'0 0.1
2014-Aug-28 05:34N 38°42' W 009°08'0 0.0
2014-Aug-28 04:34N 38°42' W 009°08'4 4.2
2014-Aug-28 03:33N 38°39' W 009°05'0 0.0
2014-Aug-28 02:33N 38°39' W 009°05'0 0.0
2014-Aug-28 01:33N 38°39' W 009°05'0 0.5
2014-Aug-28 00:33N 38°39' W 009°05'0 0.1
2014-Aug-27 23:34N 38°39' W 009°05'0 0.0
2014-Aug-27 22:34N 38°39' W 009°05'1 1.2
2014-Aug-27 21:34N 38°40' W 009°07'0 0.1
2014-Aug-27 20:33N 38°40' W 009°07'2 1.7
2014-Aug-27 19:33N 38°39' W 009°05'0 0.0
2014-Aug-27 18:34N 38°39' W 009°05'1 1.2
2014-Aug-27 17:33N 38°40' W 009°06'3 2.9
2014-Aug-27 16:34N 38°42' W 009°08'4 3.9
2014-Aug-27 15:33N 38°39' W 009°05'0 0.0
2014-Aug-27 08:30N 38°39' W 009°05'0 0.4
2014-Aug-27 07:34N 38°39' W 009°05'0 0.4
2014-Aug-27 06:33N 38°39' W 009°05'0 0.0
2014-Aug-27 05:33N 38°39' W 009°05'0 0.0
2014-Aug-26 20:19N 38°39' W 009°05'3 4.5
2014-Aug-26 19:33N 38°41' W 009°08'3 2.8
2014-Aug-26 18:34N 38°39' W 009°06'3 3.4
2014-Aug-26 17:34N 38°42' W 009°08'0 0.2
2014-Aug-26 16:33N 38°42' W 009°08'1 1.1
2014-Aug-26 15:33N 38°41' W 009°08'3 3.2
2014-Aug-26 14:34N 38°39' W 009°05'2 2.1
2014-Aug-26 13:34N 38°40' W 009°07'1 0.5
2014-Aug-26 12:33N 38°40' W 009°06'2 1.6
2014-Aug-26 11:34N 38°39' W 009°05'0 0.0
2014-Aug-26 10:34N 38°39' W 009°05'1 1.3
2014-Aug-26 09:34N 38°40' W 009°06'0 0.1
2014-Aug-26 08:34N 38°40' W 009°06'3 3.2
2014-Aug-26 07:34N 38°42' W 009°08'0 0.2
2014-Aug-26 06:34N 38°42' W 009°08'4 0.4
2014-Aug-25 20:22N 38°39' W 009°05'3 3.9
2014-Aug-25 19:33N 38°41' W 009°08'3 2.5
2014-Aug-25 18:34N 38°39' W 009°06'3 3.3
2014-Aug-25 17:34N 38°42' W 009°08'0 0.2
2014-Aug-25 16:34N 38°42' W 009°08'0 0.5
2014-Aug-25 15:33N 38°42' W 009°08'4 3.7
2014-Aug-25 14:33N 38°39' W 009°05'2 1.7
2014-Aug-25 13:33N 38°40' W 009°07'0 0.5
2014-Aug-25 12:34N 38°40' W 009°06'1 1.1
2014-Aug-25 11:34N 38°39' W 009°05'0 0.0
2014-Aug-25 10:34N 38°39' W 009°05'3 2.8
2014-Aug-25 09:33N 38°41' W 009°08'3 2.9
2014-Aug-25 08:33N 38°39' W 009°05'1 1.1
2014-Aug-25 07:33N 38°40' W 009°06'3 2.7
2014-Aug-25 06:33N 38°42' W 009°08'1 0.5
2014-Aug-25 05:33N 38°42' W 009°08'0 0.1
2014-Aug-25 04:34N 38°42' W 009°08'4 1.3
2014-Aug-25 01:24N 38°39' W 009°05'0 0.5
2014-Aug-25 00:34N 38°39' W 009°05'0 0.1
2014-Aug-24 23:34N 38°39' W 009°05'0 0.1
2014-Aug-24 22:34N 38°39' W 009°05'1 0.7
2014-Aug-24 21:33N 38°40' W 009°06'0 0.2
2014-Aug-24 20:34N 38°40' W 009°06'0 0.2
2014-Aug-24 19:34N 38°40' W 009°07'1 1.0
2014-Aug-24 18:34N 38°40' W 009°08'0 0.3
2014-Aug-24 17:33N 38°41' W 009°08'0 0.2
2014-Aug-24 16:33N 38°41' W 009°08'0 0.2
2014-Aug-24 15:33N 38°41' W 009°08'0 0.1
2014-Aug-24 14:33N 38°41' W 009°08'3 2.8
2014-Aug-24 13:33N 38°39' W 009°05'0 0.0
2014-Aug-24 12:33N 38°39' W 009°05'1 1.5
2014-Aug-24 11:34N 38°40' W 009°06'0 0.1
2014-Aug-24 10:34N 38°40' W 009°07'2 1.5
2014-Aug-24 09:33N 38°39' W 009°05'0 0.0
2014-Aug-22 20:06N 38°39' W 009°05'4 6.6
2014-Aug-22 19:34N 38°42' W 009°08'1 0.7
2014-Aug-22 18:34N 38°42' W 009°08'4 4.1
2014-Aug-22 17:33N 38°39' W 009°05'0 0.0
2014-Aug-22 16:33N 38°39' W 009°05'4 3.6
2014-Aug-22 15:34N 38°42' W 009°08'1 1.1
2014-Aug-22 14:34N 38°41' W 009°08'0 0.1
2014-Aug-22 13:33N 38°41' W 009°08'0 0.1
2014-Aug-22 12:34N 38°41' W 009°08'0 0.2
2014-Aug-22 11:34N 38°41' W 009°08'  

Dump ship's entire track history